createdAt,value
2023-04-08T00:02:39.575Z,6.75
2023-04-08T00:07:42.609Z,6.80
2023-04-08T00:12:45.542Z,6.82
2023-04-08T00:17:49.701Z,6.86
2023-04-08T00:22:52.755Z,6.88
2023-04-08T00:27:55.640Z,6.87
2023-04-08T00:32:59.881Z,6.88
2023-04-08T00:38:03.339Z,6.84
2023-04-08T00:43:06.073Z,6.88
2023-04-08T00:48:10.305Z,6.92
2023-04-08T00:53:13.609Z,6.97
2023-04-08T00:58:17.707Z,6.81
2023-04-08T01:03:31.617Z,6.90
2023-04-08T01:08:38.503Z,6.99
2023-04-08T01:13:43.317Z,6.95
2023-04-08T01:18:49.418Z,6.89
2023-04-08T01:24:02.116Z,6.92
2023-04-08T01:29:07.561Z,7.03
2023-04-08T01:34:11.850Z,7.06
2023-04-08T01:39:17.326Z,7.05
2023-04-08T01:44:24.179Z,6.93
2023-04-08T01:49:28.001Z,6.83
2023-04-08T01:54:30.824Z,6.78
2023-04-08T01:59:37.662Z,6.91
2023-04-08T02:04:41.470Z,6.96
2023-04-08T02:09:44.423Z,6.99
2023-04-08T02:14:48.840Z,7.03
2023-04-08T02:19:58.020Z,7.04
2023-04-08T02:25:02.235Z,7.12
2023-04-08T02:30:09.350Z,7.11
2023-04-08T02:35:13.460Z,7.11
2023-04-08T02:40:27.294Z,7.09
2023-04-08T02:45:33.631Z,7.10
2023-04-08T02:50:36.943Z,7.10
2023-04-08T02:55:40.121Z,7.10
2023-04-08T03:00:44.367Z,7.07
2023-04-08T03:05:47.131Z,7.14
2023-04-08T03:10:50.059Z,7.11
2023-04-08T03:15:54.248Z,7.15
2023-04-08T03:20:57.198Z,7.10
2023-04-08T03:26:00.115Z,7.10
2023-04-08T03:31:05.860Z,7.10
2023-04-08T03:36:09.876Z,7.11
2023-04-08T03:41:12.798Z,7.06
2023-04-08T03:46:17.106Z,6.96
2023-04-08T03:51:19.943Z,6.89
2023-04-08T03:56:22.896Z,6.93
2023-04-08T04:01:27.099Z,6.94
2023-04-08T04:06:29.838Z,6.95
2023-04-08T04:11:32.616Z,6.89
2023-04-08T04:16:36.763Z,6.74
2023-04-08T04:21:39.665Z,6.76
2023-04-08T04:26:42.731Z,6.74
2023-04-08T04:31:46.946Z,6.76
2023-04-08T04:36:49.838Z,6.88
2023-04-08T04:41:52.814Z,6.90
2023-04-08T04:46:58.132Z,6.90
2023-04-08T04:52:00.987Z,6.87
2023-04-08T04:57:03.818Z,6.82
2023-04-08T05:02:08.195Z,6.71
2023-04-08T05:07:11.015Z,6.74
2023-04-08T05:12:13.766Z,6.72
2023-04-08T05:17:17.919Z,6.76
2023-04-08T05:22:20.745Z,6.73
2023-04-08T05:27:23.546Z,6.74
2023-04-08T05:32:27.737Z,6.80
2023-04-08T05:37:30.526Z,6.79
2023-04-08T05:42:33.324Z,6.74
2023-04-08T05:47:37.627Z,6.76
2023-04-08T05:52:44.638Z,6.85
2023-04-08T05:57:47.527Z,7.00
2023-04-08T06:02:51.856Z,7.38
2023-04-08T06:07:54.741Z,7.77
2023-04-08T06:12:57.586Z,7.67
2023-04-08T06:18:01.794Z,7.73
2023-04-08T06:23:04.634Z,7.48
2023-04-08T06:28:07.387Z,7.67
2023-04-08T06:33:11.605Z,7.88
2023-04-08T06:38:14.354Z,7.79
2023-04-08T06:43:17.132Z,7.80
2023-04-08T06:48:23.406Z,7.66
2023-04-08T06:53:27.131Z,7.66
2023-04-08T06:58:30.912Z,7.64
2023-04-08T07:03:35.144Z,7.83
2023-04-08T07:08:38.709Z,7.99
2023-04-08T07:13:41.489Z,8.06
2023-04-08T07:18:45.791Z,7.99
2023-04-08T07:23:48.657Z,8.24
2023-04-08T07:28:51.911Z,8.39
2023-04-08T07:33:56.266Z,8.09
2023-04-08T07:38:59.061Z,8.22
2023-04-08T07:44:01.951Z,8.33
2023-04-08T07:49:06.104Z,8.21
2023-04-08T07:54:10.409Z,8.05
2023-04-08T07:59:13.195Z,8.03
2023-04-08T08:04:17.729Z,8.02
2023-04-08T08:09:20.788Z,8.34
2023-04-08T08:14:23.575Z,8.56
2023-04-08T08:19:27.742Z,8.75
2023-04-08T08:24:30.579Z,9.14
2023-04-08T08:29:33.610Z,9.44
2023-04-08T08:34:38.201Z,9.83
2023-04-08T08:39:41.015Z,9.84
2023-04-08T08:44:43.849Z,9.49
2023-04-08T08:49:48.975Z,9.80
2023-04-08T08:54:59.199Z,10.48
2023-04-08T09:00:02.132Z,11.19
2023-04-08T09:05:06.917Z,10.84
2023-04-08T09:10:11.159Z,10.66
2023-04-08T09:15:13.982Z,10.39
2023-04-08T09:20:18.198Z,10.60
2023-04-08T09:25:25.406Z,11.33
2023-04-08T09:30:29.080Z,11.68
2023-04-08T09:35:33.254Z,12.55
2023-04-08T09:40:36.851Z,12.50
2023-04-08T09:45:42.861Z,12.60
2023-04-08T09:50:51.836Z,12.42
2023-04-08T09:55:58.063Z,11.93
2023-04-08T10:01:01.795Z,11.40
2023-04-08T10:06:08.291Z,10.98
2023-04-08T10:11:11.622Z,10.74
2023-04-08T10:16:22.138Z,10.79
2023-04-08T10:21:43.670Z,10.37
2023-04-08T10:26:48.855Z,10.15
2023-04-08T10:31:52.633Z,10.21
2023-04-08T10:36:59.400Z,10.20
2023-04-08T10:42:04.186Z,10.20
2023-04-08T10:47:07.493Z,10.33
2023-04-08T10:52:12.050Z,10.21
2023-04-08T10:57:15.068Z,10.27
2023-04-08T11:02:18.084Z,10.64
2023-04-08T11:07:22.948Z,10.43
2023-04-08T11:12:27.859Z,10.69
2023-04-08T11:17:31.239Z,11.04
2023-04-08T11:22:35.833Z,10.88
2023-04-08T11:27:39.591Z,10.72
2023-04-08T11:32:42.608Z,10.87
2023-04-08T11:37:47.800Z,10.98
2023-04-08T11:42:51.332Z,11.10
2023-04-08T11:47:54.278Z,11.67
2023-04-08T11:52:58.503Z,12.30
2023-04-08T11:58:04.370Z,12.21
2023-04-08T12:03:07.649Z,12.22
2023-04-08T12:08:11.894Z,12.54
2023-04-08T12:13:14.702Z,12.57
2023-04-08T12:18:17.491Z,12.23
2023-04-08T12:23:21.680Z,12.12
2023-04-08T12:28:24.484Z,12.19
2023-04-08T12:33:27.323Z,12.17
2023-04-08T12:38:31.525Z,12.13
2023-04-08T12:43:34.533Z,11.87
2023-04-08T12:48:37.994Z,11.64
2023-04-08T12:53:42.330Z,11.39
2023-04-08T12:58:45.186Z,11.35
2023-04-08T13:03:48.657Z,11.18
2023-04-08T13:08:53.279Z,11.14
2023-04-08T13:13:56.211Z,11.43
2023-04-08T13:18:59.023Z,11.48
2023-04-08T13:24:03.223Z,11.26
2023-04-08T13:29:06.729Z,11.10
2023-04-08T13:34:09.471Z,10.97
2023-04-08T13:39:13.656Z,10.90
2023-04-08T13:44:17.034Z,10.92
2023-04-08T13:49:20.535Z,10.88
2023-04-08T13:54:24.685Z,11.17
2023-04-08T13:59:27.574Z,11.61
2023-04-08T14:04:30.419Z,11.91
2023-04-08T14:09:35.787Z,12.01
2023-04-08T14:14:38.658Z,11.93
2023-04-08T14:19:41.940Z,11.91
2023-04-08T14:24:46.031Z,11.48
2023-04-08T14:29:48.820Z,11.37
2023-04-08T14:34:51.919Z,11.32
2023-04-08T14:39:56.605Z,11.24
2023-04-08T14:44:59.376Z,11.19
2023-04-08T14:50:02.166Z,10.97
2023-04-08T14:55:07.171Z,10.81
2023-04-08T15:00:10.984Z,10.73
2023-04-08T15:05:13.830Z,10.82
2023-04-08T15:10:18.082Z,10.72
2023-04-08T15:15:20.826Z,10.77
2023-04-08T15:20:23.676Z,10.91
2023-04-08T15:25:27.880Z,11.22
2023-04-08T15:30:35.208Z,11.72
2023-04-08T15:35:39.428Z,11.66
2023-04-08T15:40:45.592Z,11.63
2023-04-08T15:45:50.315Z,11.47
2023-04-08T15:50:53.442Z,11.24
2023-04-08T15:55:57.724Z,11.33
2023-04-08T16:01:00.483Z,11.08
2023-04-08T16:06:03.445Z,10.78
2023-04-08T16:11:08.106Z,10.55
2023-04-08T16:16:12.286Z,10.55
2023-04-08T16:21:15.191Z,10.57
2023-04-08T16:26:19.778Z,10.35
2023-04-08T16:31:22.857Z,10.10
2023-04-08T16:36:25.802Z,10.07
2023-04-08T16:41:29.921Z,10.03
2023-04-08T16:46:32.941Z,9.93
2023-04-08T16:51:35.923Z,9.76
2023-04-08T16:56:44.279Z,9.71
2023-04-08T17:01:47.291Z,9.74
2023-04-08T17:06:50.126Z,9.67
2023-04-08T17:11:55.606Z,9.49
2023-04-08T17:16:58.466Z,9.53
2023-04-08T17:22:01.546Z,9.48
2023-04-08T17:27:06.024Z,9.54
2023-04-08T17:32:08.905Z,9.42
2023-04-08T17:37:11.686Z,9.43
2023-04-08T17:42:16.844Z,9.32
2023-04-08T17:47:20.957Z,9.25
2023-04-08T17:52:23.809Z,9.25
2023-04-08T17:57:28.452Z,9.16
2023-04-08T18:02:31.525Z,9.15
2023-04-08T18:07:34.487Z,9.11
2023-04-08T18:12:38.608Z,9.08
2023-04-08T18:17:41.424Z,9.05
2023-04-08T18:22:44.262Z,9.00
2023-04-08T18:27:48.662Z,8.94
2023-04-08T18:32:51.579Z,8.93
2023-04-08T18:37:54.409Z,8.90
2023-04-08T18:43:02.027Z,8.80
2023-04-08T18:48:04.974Z,8.74
2023-04-08T18:53:07.960Z,8.70
2023-04-08T18:58:12.254Z,8.81
2023-04-08T19:03:15.293Z,8.82
2023-04-08T19:08:18.124Z,8.67
2023-04-08T19:13:23.752Z,8.63
2023-04-08T19:18:26.587Z,8.65
2023-04-08T19:23:29.366Z,8.53
2023-04-08T19:28:33.824Z,8.53
2023-04-08T19:33:36.596Z,8.52
2023-04-08T19:38:39.659Z,8.47
2023-04-08T19:43:43.861Z,8.30
2023-04-08T19:48:46.718Z,8.24
2023-04-08T19:53:50.935Z,8.22
2023-04-08T19:58:55.308Z,8.05
2023-04-08T20:03:58.202Z,8.22
2023-04-08T20:09:05.372Z,8.23
2023-04-08T20:14:09.703Z,8.08
2023-04-08T20:19:12.541Z,7.92
2023-04-08T20:24:16.223Z,7.77
2023-04-08T20:29:20.398Z,7.63
2023-04-08T20:34:23.169Z,7.57
2023-04-08T20:39:29.809Z,7.50
2023-04-08T20:44:33.952Z,7.43
2023-04-08T20:49:40.820Z,7.40
2023-04-08T20:54:43.612Z,7.37
2023-04-08T20:59:47.769Z,7.30
2023-04-08T21:04:50.909Z,7.35
2023-04-08T21:09:53.709Z,7.30
2023-04-08T21:14:57.878Z,7.22
2023-04-08T21:20:00.876Z,7.11
2023-04-08T21:25:03.700Z,6.97
2023-04-08T21:30:09.001Z,6.83
2023-04-08T21:35:11.918Z,6.80
2023-04-08T21:40:14.884Z,6.73
2023-04-08T21:45:19.297Z,6.56
2023-04-08T21:50:22.111Z,6.51
2023-04-08T21:55:25.749Z,6.45
2023-04-08T22:00:30.121Z,6.43
2023-04-08T22:05:33.041Z,6.39
2023-04-08T22:10:35.809Z,6.21
2023-04-08T22:15:40.102Z,6.19
2023-04-08T22:20:42.843Z,6.10
2023-04-08T22:25:46.090Z,6.13
2023-04-08T22:30:50.581Z,6.13
2023-04-08T22:35:53.307Z,6.13
2023-04-08T22:40:56.198Z,6.15
2023-04-08T22:46:00.479Z,6.04
2023-04-08T22:51:03.241Z,5.86
2023-04-08T22:56:06.529Z,5.73
2023-04-08T23:01:16.940Z,5.67
2023-04-08T23:06:19.849Z,5.67
2023-04-08T23:11:22.600Z,5.58
2023-04-08T23:16:26.710Z,5.47
2023-04-08T23:21:29.493Z,5.48
2023-04-08T23:26:32.190Z,5.51
2023-04-08T23:31:36.382Z,5.58
2023-04-08T23:36:39.264Z,5.71
2023-04-08T23:41:42.022Z,5.64
2023-04-08T23:46:46.171Z,5.47
2023-04-08T23:51:49.016Z,5.38
2023-04-08T23:56:51.768Z,5.26
